Terminal Aerodrome Forecast
Issued by NWS

Home | Current Version | Previous Version | Text Only | Print | Product List | Glossary On
Versions: 1 2 3 4 5 6 7 8 9 10 11 12 13 14 15 16 17 18 19 20 21 22 23 24 25 26
000
FTUS41 KOKX 011700
TAFTEB
TAF
KTEB 011736Z 0118/0218 25005KT P6SM BKN040
     FM020100 VRB03KT 2SM -SN SCT008 SCT020 OVC040
     FM020400 VRB04KT 1SM -SN OVC008
     FM020600 10007KT 1SM -SN OVC005
      TEMPO 0207/0209 1/2SM SN
     FM020900 09008KT 1SM -FZRASN OVC005
     FM021100 07008KT 1SM +RA BR OVC004
     FM021400 01009KT 2SM RA BR OVC005
     FM021600 32010KT 3SM FZRA OVC008=

USA.gov is the U.S. government's official web portal to all federal, state and local government web resources and services.